createdAt,value
2019-03-22T00:00:12.296Z,12.80
2019-03-22T00:02:40.982Z,11.90
2019-03-22T00:05:10.230Z,13.47
2019-03-22T00:07:38.926Z,14.87
2019-03-22T00:10:07.609Z,12.53
2019-03-22T00:12:36.302Z,17.63
2019-03-22T00:15:07.086Z,13.87
2019-03-22T00:17:35.766Z,16.53
2019-03-22T00:20:08.821Z,23.33
2019-03-22T00:22:37.511Z,15.87
2019-03-22T00:25:07.816Z,13.90
2019-03-22T00:27:36.502Z,15.73
2019-03-22T00:30:08.147Z,13.50
2019-03-22T00:32:36.887Z,16.70
2019-03-22T00:35:07.511Z,15.50
2019-03-22T00:37:36.195Z,14.00
2019-03-22T00:40:09.363Z,13.43
2019-03-22T00:42:38.093Z,12.27
2019-03-22T00:45:08.254Z,16.07
2019-03-22T00:47:36.955Z,11.70
2019-03-22T00:50:06.940Z,16.70
2019-03-22T00:52:35.653Z,15.63
2019-03-22T00:55:04.900Z,14.90
2019-03-22T00:57:33.625Z,17.57
2019-03-22T01:00:02.291Z,23.53
2019-03-22T01:02:30.994Z,16.07
2019-03-22T01:04:59.693Z,17.43
2019-03-22T01:07:28.409Z,16.10
2019-03-22T01:09:57.075Z,13.77
2019-03-22T01:12:26.112Z,15.73
2019-03-22T01:14:54.779Z,16.17
2019-03-22T01:17:23.507Z,15.13
2019-03-22T01:19:52.217Z,13.30
2019-03-22T01:22:20.891Z,12.00
2019-03-22T01:24:49.611Z,12.70
2019-03-22T01:27:18.283Z,14.17
2019-03-22T01:29:47.010Z,15.80
2019-03-22T01:32:15.732Z,19.53
2019-03-22T01:34:44.454Z,11.83
2019-03-22T01:37:13.177Z,11.57
2019-03-22T01:39:41.852Z,12.57
2019-03-22T01:42:10.591Z,12.30
2019-03-22T01:44:39.261Z,15.27
2019-03-22T01:47:07.955Z,12.90
2019-03-22T01:49:36.745Z,16.97
2019-03-22T01:52:05.438Z,16.50
2019-03-22T01:54:34.280Z,15.13
2019-03-22T01:57:02.996Z,15.87
2019-03-22T01:59:31.724Z,15.57
2019-03-22T02:02:00.439Z,15.23
2019-03-22T02:04:29.123Z,12.90
2019-03-22T02:06:57.856Z,16.67
2019-03-22T02:09:26.538Z,12.70
2019-03-22T02:11:55.251Z,16.13
2019-03-22T02:14:24.021Z,14.50
2019-03-22T02:16:52.782Z,15.70
2019-03-22T02:19:21.476Z,13.90
2019-03-22T02:21:50.442Z,15.77
2019-03-22T02:24:19.102Z,15.23
2019-03-22T02:26:47.847Z,13.23
2019-03-22T02:29:16.537Z,11.93
2019-03-22T02:31:45.320Z,16.27
2019-03-22T02:34:13.991Z,12.53
2019-03-22T02:36:42.704Z,12.63
2019-03-22T02:39:11.456Z,13.03
2019-03-22T02:41:40.502Z,14.93
2019-03-22T02:44:09.227Z,14.80
2019-03-22T02:46:38.019Z,16.10
2019-03-22T02:49:06.752Z,15.80
2019-03-22T02:51:35.658Z,16.00
2019-03-22T02:54:04.811Z,13.50
2019-03-22T02:56:33.525Z,16.73
2019-03-22T02:59:02.371Z,17.00
2019-03-22T03:01:31.249Z,19.60
2019-03-22T03:03:59.924Z,18.03
2019-03-22T03:06:28.623Z,15.80
2019-03-22T03:08:57.667Z,16.33
2019-03-22T03:11:38.993Z,13.83
2019-03-22T03:14:07.912Z,17.63
2019-03-22T03:16:36.597Z,13.33
2019-03-22T03:19:05.585Z,11.53
2019-03-22T03:21:34.316Z,15.47
2019-03-22T03:24:02.981Z,16.57
2019-03-22T03:26:31.740Z,14.87
2019-03-22T03:29:00.454Z,12.13
2019-03-22T03:31:29.197Z,11.50
2019-03-22T03:33:58.036Z,15.60
2019-03-22T03:36:26.965Z,13.10
2019-03-22T03:38:55.712Z,13.80
2019-03-22T03:41:24.459Z,17.13
2019-03-22T03:43:53.132Z,15.83
2019-03-22T03:46:21.925Z,16.63
2019-03-22T03:48:50.645Z,18.13
2019-03-22T03:51:19.356Z,15.67
2019-03-22T03:53:48.264Z,17.47
2019-03-22T03:56:16.982Z,13.93
2019-03-22T03:58:52.126Z,12.60
2019-03-22T04:01:16.255Z,15.77
2019-03-22T04:03:45.031Z,15.00
2019-03-22T04:06:13.692Z,14.37
2019-03-22T04:08:42.367Z,15.67
2019-03-22T04:11:11.088Z,16.67
2019-03-22T04:13:39.848Z,15.50
2019-03-22T04:16:08.547Z,16.97
2019-03-22T04:18:37.435Z,17.97
2019-03-22T04:21:06.151Z,14.33
2019-03-22T04:23:34.863Z,16.90
2019-03-22T04:26:03.728Z,12.57
2019-03-22T04:28:32.406Z,15.27
2019-03-22T04:31:01.124Z,17.73
2019-03-22T04:33:29.823Z,15.13
2019-03-22T04:35:58.520Z,15.97
2019-03-22T04:38:27.224Z,17.47
2019-03-22T04:40:56.024Z,14.80
2019-03-22T04:43:24.707Z,17.67
2019-03-22T04:45:54.824Z,21.20
2019-03-22T04:48:26.153Z,14.30
2019-03-22T04:50:57.939Z,15.67
2019-03-22T04:53:29.427Z,13.20
2019-03-22T04:56:01.095Z,14.37
2019-03-22T04:58:31.460Z,20.40
2019-03-22T05:01:00.831Z,17.07
2019-03-22T05:03:30.531Z,15.70
2019-03-22T05:06:01.735Z,17.77
2019-03-22T05:08:33.555Z,13.80
2019-03-22T05:11:04.159Z,20.80
2019-03-22T05:13:34.863Z,19.23
2019-03-22T05:16:05.235Z,15.20
2019-03-22T05:18:35.151Z,16.70
2019-03-22T05:21:05.031Z,15.60
2019-03-22T05:23:33.920Z,15.90
2019-03-22T05:26:03.194Z,15.70
2019-03-22T05:28:32.524Z,16.27
2019-03-22T05:31:09.686Z,18.50
2019-03-22T05:33:38.391Z,18.77
2019-03-22T05:36:07.115Z,15.80
2019-03-22T05:38:35.852Z,13.93
2019-03-22T05:41:04.583Z,16.73
2019-03-22T05:43:33.263Z,16.57
2019-03-22T05:46:02.117Z,13.40
2019-03-22T05:48:30.854Z,14.93
2019-03-22T05:50:59.542Z,16.07
2019-03-22T05:53:28.238Z,14.90
2019-03-22T05:55:56.894Z,17.23
2019-03-22T05:58:25.611Z,20.00
2019-03-22T06:00:54.282Z,17.03
2019-03-22T06:03:22.985Z,16.03
2019-03-22T06:05:51.682Z,20.10
2019-03-22T06:08:20.363Z,14.93
2019-03-22T06:10:49.084Z,14.80
2019-03-22T06:13:18.271Z,19.50
2019-03-22T06:15:46.931Z,18.57
2019-03-22T06:18:15.639Z,17.20
2019-03-22T06:20:44.326Z,17.33
2019-03-22T06:23:13.127Z,15.57
2019-03-22T06:25:41.801Z,17.07
2019-03-22T06:28:10.516Z,18.03
2019-03-22T06:30:39.199Z,14.97
2019-03-22T06:33:07.889Z,16.40
2019-03-22T06:35:36.615Z,16.50
2019-03-22T06:38:05.290Z,17.70
2019-03-22T06:40:33.973Z,17.80
2019-03-22T06:43:02.690Z,16.20
2019-03-22T06:45:31.397Z,17.87
2019-03-22T06:48:00.104Z,19.07
2019-03-22T06:50:28.780Z,19.30
2019-03-22T06:52:57.488Z,16.03
2019-03-22T06:55:26.173Z,14.93
2019-03-22T06:57:54.885Z,17.83
2019-03-22T07:00:23.543Z,18.33
2019-03-22T07:02:52.407Z,17.83
2019-03-22T07:05:21.084Z,17.97
2019-03-22T07:07:49.826Z,17.30
2019-03-22T07:10:18.519Z,14.10
2019-03-22T07:12:47.255Z,15.27
2019-03-22T07:15:15.939Z,14.10
2019-03-22T07:17:44.652Z,18.80
2019-03-22T07:20:13.537Z,16.80
2019-03-22T07:22:42.218Z,16.13
2019-03-22T07:25:11.091Z,21.47
2019-03-22T07:27:39.884Z,22.20
2019-03-22T07:30:18.473Z,19.80
2019-03-22T07:32:41.976Z,14.50
2019-03-22T07:35:10.772Z,25.10
2019-03-22T07:37:39.460Z,18.30
2019-03-22T07:40:12.402Z,17.53
2019-03-22T07:42:44.425Z,16.97
2019-03-22T07:45:13.721Z,19.73
2019-03-22T07:47:42.411Z,20.40
2019-03-22T07:50:15.130Z,24.57
2019-03-22T07:52:43.937Z,21.67
2019-03-22T07:55:14.307Z,19.30
2019-03-22T07:57:43.027Z,16.40
2019-03-22T08:00:13.347Z,18.77
2019-03-22T08:02:43.175Z,27.30
2019-03-22T08:05:13.215Z,21.17
2019-03-22T08:07:43.159Z,18.43
2019-03-22T08:10:13.404Z,17.40
2019-03-22T08:12:42.553Z,17.77
2019-03-22T08:15:12.648Z,23.00
2019-03-22T08:17:42.667Z,16.80
2019-03-22T08:20:12.071Z,20.47
2019-03-22T08:22:40.788Z,21.13
2019-03-22T08:25:09.576Z,18.33
2019-03-22T08:27:38.239Z,22.67
2019-03-22T08:30:08.462Z,16.63
2019-03-22T08:32:37.134Z,20.07
2019-03-22T08:35:06.028Z,21.73
2019-03-22T08:37:34.714Z,16.90
2019-03-22T08:40:04.427Z,18.33
2019-03-22T08:42:33.199Z,15.23
2019-03-22T08:45:01.898Z,17.17
2019-03-22T08:47:34.339Z,17.03
2019-03-22T08:50:00.988Z,15.63
2019-03-22T08:52:29.669Z,18.87
2019-03-22T08:54:58.567Z,15.57
2019-03-22T08:57:27.249Z,17.57
2019-03-22T08:59:55.964Z,19.40
2019-03-22T09:02:24.669Z,19.93
2019-03-22T09:04:53.675Z,14.90
2019-03-22T09:07:24.463Z,16.93
2019-03-22T09:09:53.143Z,14.00
2019-03-22T09:12:22.038Z,19.57
2019-03-22T09:14:50.816Z,17.40
2019-03-22T09:17:20.078Z,14.60
2019-03-22T09:19:51.054Z,15.00
2019-03-22T09:22:19.361Z,15.93
2019-03-22T09:24:48.086Z,14.83
2019-03-22T09:27:16.798Z,16.43
2019-03-22T09:29:47.375Z,17.47
2019-03-22T09:32:16.343Z,14.57
2019-03-22T09:34:45.060Z,16.40
2019-03-22T09:37:13.888Z,13.07
2019-03-22T09:39:42.671Z,11.03
2019-03-22T09:42:11.355Z,12.50
2019-03-22T09:44:44.524Z,11.23
2019-03-22T09:47:10.618Z,13.40
2019-03-22T09:49:40.861Z,13.87
2019-03-22T09:52:28.918Z,29.23
2019-03-22T09:54:57.944Z,9.40
2019-03-22T09:57:26.640Z,10.53
2019-03-22T09:59:55.340Z,19.23
2019-03-22T10:02:24.052Z,12.80
2019-03-22T10:04:52.750Z,11.67
2019-03-22T10:07:21.720Z,9.73
2019-03-22T10:09:50.474Z,9.97
2019-03-22T10:12:19.182Z,9.07
2019-03-22T10:14:47.916Z,6.63
2019-03-22T10:17:16.751Z,10.70
2019-03-22T10:19:45.595Z,12.40
2019-03-22T10:22:14.728Z,12.00
2019-03-22T10:24:43.536Z,8.73
2019-03-22T10:27:12.437Z,11.53
2019-03-22T10:29:41.119Z,6.80
2019-03-22T10:32:09.954Z,8.10
2019-03-22T10:34:39.881Z,12.63
2019-03-22T10:37:08.916Z,8.70
2019-03-22T10:39:38.043Z,9.00
2019-03-22T10:42:06.846Z,7.77
2019-03-22T10:44:35.558Z,8.70
2019-03-22T10:47:04.256Z,9.00
2019-03-22T10:49:33.075Z,9.70
2019-03-22T10:52:04.514Z,7.20
2019-03-22T10:54:32.200Z,10.23
2019-03-22T10:57:01.306Z,9.63
2019-03-22T10:59:29.979Z,12.90
2019-03-22T11:02:03.610Z,8.33
2019-03-22T11:04:29.176Z,7.37
2019-03-22T11:06:57.853Z,8.17
2019-03-22T11:09:26.568Z,6.57
2019-03-22T11:11:55.257Z,7.13
2019-03-22T11:14:23.923Z,10.83
2019-03-22T11:16:52.634Z,8.73
2019-03-22T11:19:21.306Z,8.00
2019-03-22T11:21:50.049Z,7.57
2019-03-22T11:24:18.786Z,6.83
2019-03-22T11:26:49.129Z,8.87
2019-03-22T11:29:17.811Z,6.90
2019-03-22T11:31:46.577Z,9.00
2019-03-22T11:34:15.265Z,10.23
2019-03-22T11:36:43.966Z,9.50
2019-03-22T11:39:15.702Z,9.40
2019-03-22T11:41:43.617Z,8.20
2019-03-22T11:44:12.366Z,8.90
2019-03-22T11:46:41.067Z,9.80
2019-03-22T11:49:09.744Z,7.30
2019-03-22T11:51:40.194Z,7.53
2019-03-22T11:54:08.848Z,7.40
2019-03-22T11:56:37.536Z,8.40
2019-03-22T11:59:06.227Z,6.70
2019-03-22T12:01:34.938Z,5.87
2019-03-22T12:04:03.630Z,5.50
2019-03-22T12:06:32.346Z,5.03
2019-03-22T12:09:01.124Z,5.67
2019-03-22T12:11:29.947Z,4.60
2019-03-22T12:13:58.806Z,6.50
2019-03-22T12:16:27.539Z,5.13
2019-03-22T12:18:56.424Z,10.10
2019-03-22T12:21:25.168Z,5.60
2019-03-22T12:23:53.875Z,5.93
2019-03-22T12:26:22.549Z,8.40
2019-03-22T12:28:51.256Z,6.10
2019-03-22T12:31:19.944Z,6.57
2019-03-22T12:33:48.670Z,4.73
2019-03-22T12:36:17.377Z,3.80
2019-03-22T12:38:46.347Z,4.37
2019-03-22T12:41:15.027Z,6.70
2019-03-22T12:43:43.730Z,3.07
2019-03-22T12:46:12.426Z,4.20
2019-03-22T12:48:41.171Z,4.30
2019-03-22T12:51:09.860Z,6.13
2019-03-22T12:53:38.639Z,4.90
2019-03-22T12:56:07.337Z,5.00
2019-03-22T12:58:36.143Z,6.80
2019-03-22T13:01:10.224Z,5.20
2019-03-22T13:03:38.308Z,9.07
2019-03-22T13:06:07.109Z,7.17
2019-03-22T13:08:35.805Z,3.87
2019-03-22T13:11:12.319Z,4.90
2019-03-22T13:13:41.254Z,6.23
2019-03-22T13:16:11.386Z,6.53
2019-03-22T13:18:49.786Z,4.13
2019-03-22T13:21:12.093Z,3.77
2019-03-22T13:23:40.844Z,5.47
2019-03-22T13:26:09.576Z,2.90
2019-03-22T13:28:38.422Z,3.30
2019-03-22T13:31:07.139Z,4.67
2019-03-22T13:33:35.887Z,4.33
2019-03-22T13:36:04.904Z,2.70
2019-03-22T13:38:34.967Z,3.03
2019-03-22T13:41:03.824Z,2.70
2019-03-22T13:43:32.564Z,3.30
2019-03-22T13:46:01.297Z,3.30
2019-03-22T13:48:30.018Z,3.53
2019-03-22T13:50:58.694Z,4.03
2019-03-22T13:53:27.407Z,4.77
2019-03-22T13:55:56.100Z,3.00
2019-03-22T13:58:24.812Z,3.80
2019-03-22T14:00:53.544Z,2.50
2019-03-22T14:03:22.256Z,4.20
2019-03-22T14:05:51.028Z,3.60
2019-03-22T14:08:19.754Z,2.50
2019-03-22T14:10:48.654Z,4.70
2019-03-22T14:13:17.372Z,3.30
2019-03-22T14:15:46.049Z,5.23
2019-03-22T14:18:14.731Z,5.23
2019-03-22T14:20:43.660Z,1.77
2019-03-22T14:23:12.684Z,3.10
2019-03-22T14:25:41.402Z,2.20
2019-03-22T14:28:10.072Z,1.70
2019-03-22T14:30:38.751Z,5.97
2019-03-22T14:33:13.369Z,4.47
2019-03-22T14:35:37.866Z,3.27
2019-03-22T14:38:25.843Z,4.20
2019-03-22T14:40:54.521Z,2.90
2019-03-22T14:43:23.181Z,5.40
2019-03-22T14:45:51.932Z,10.33
2019-03-22T14:48:20.586Z,5.73
2019-03-22T14:50:49.400Z,2.10
2019-03-22T14:53:18.117Z,2.53
2019-03-22T14:55:46.791Z,4.33
2019-03-22T14:58:15.492Z,5.10
2019-03-22T15:00:44.225Z,3.00
2019-03-22T15:03:25.083Z,3.30
2019-03-22T15:05:55.077Z,1.60
2019-03-22T15:08:24.202Z,1.77
2019-03-22T15:10:53.483Z,2.50
2019-03-22T15:13:29.223Z,4.10
2019-03-22T15:16:16.416Z,3.13
2019-03-22T15:18:46.664Z,2.50
2019-03-22T15:21:22.890Z,2.83
2019-03-22T15:24:02.986Z,3.07
2019-03-22T15:26:25.228Z,2.20
2019-03-22T15:29:10.744Z,1.90
2019-03-22T15:31:41.123Z,3.83
2019-03-22T15:34:17.289Z,3.80
2019-03-22T15:36:56.515Z,2.80
2019-03-22T15:39:35.605Z,1.40
2019-03-22T15:42:04.620Z,2.10
2019-03-22T15:44:33.324Z,3.10
2019-03-22T15:47:02.004Z,2.73
2019-03-22T15:49:31.502Z,2.90
2019-03-22T15:52:00.214Z,3.20
2019-03-22T15:54:28.927Z,4.83
2019-03-22T15:56:57.620Z,2.20
2019-03-22T15:59:26.483Z,2.70
2019-03-22T16:01:55.190Z,1.90
2019-03-22T16:04:23.905Z,2.53
2019-03-22T16:06:53.654Z,6.10
2019-03-22T16:09:22.330Z,1.87
2019-03-22T16:11:51.191Z,2.60
2019-03-22T16:14:20.082Z,5.47
2019-03-22T16:16:48.873Z,6.17
2019-03-22T16:19:18.620Z,3.17
2019-03-22T16:21:47.451Z,3.13
2019-03-22T16:24:16.405Z,2.60
2019-03-22T16:26:45.112Z,2.90
2019-03-22T16:29:13.799Z,3.27
2019-03-22T16:31:42.514Z,3.03
2019-03-22T16:34:11.207Z,15.07
2019-03-22T16:36:39.988Z,16.70
2019-03-22T16:39:08.951Z,3.73
2019-03-22T16:41:37.647Z,2.90
2019-03-22T16:44:06.346Z,6.43
2019-03-22T16:46:35.027Z,3.37
2019-03-22T16:49:03.709Z,2.80
2019-03-22T16:51:32.387Z,2.43
2019-03-22T16:54:01.101Z,3.17
2019-03-22T16:56:29.961Z,1.50
2019-03-22T16:58:58.663Z,2.20
2019-03-22T17:01:27.372Z,10.47
2019-03-22T17:04:04.142Z,2.10
2019-03-22T17:06:26.825Z,2.43
2019-03-22T17:08:55.549Z,2.80
2019-03-22T17:11:24.283Z,1.90
2019-03-22T17:13:52.980Z,2.47
2019-03-22T17:16:21.710Z,2.40
2019-03-22T17:18:50.452Z,2.30
2019-03-22T17:21:19.121Z,1.80
2019-03-22T17:23:47.852Z,3.40
2019-03-22T17:26:16.753Z,3.37
2019-03-22T17:28:45.497Z,3.43
2019-03-22T17:31:15.059Z,5.20
2019-03-22T17:33:43.752Z,2.27
2019-03-22T17:36:12.654Z,3.03
2019-03-22T17:38:41.402Z,6.23
2019-03-22T17:41:10.126Z,2.60
2019-03-22T17:43:38.796Z,3.60
2019-03-22T17:46:07.497Z,3.37
2019-03-22T17:48:36.178Z,5.60
2019-03-22T17:51:05.023Z,3.80
2019-03-22T17:53:33.705Z,2.50
2019-03-22T17:56:02.382Z,3.27
2019-03-22T17:58:31.073Z,3.20
2019-03-22T18:00:59.851Z,2.53
2019-03-22T18:03:28.577Z,3.50
2019-03-22T18:05:57.271Z,3.57
2019-03-22T18:08:26.026Z,3.37
2019-03-22T18:10:54.767Z,8.40
2019-03-22T18:13:42.748Z,3.43
2019-03-22T18:16:11.491Z,2.70
2019-03-22T18:18:40.184Z,4.40
2019-03-22T18:21:08.868Z,3.53
2019-03-22T18:23:37.578Z,4.70
2019-03-22T18:26:08.203Z,5.47
2019-03-22T18:28:36.912Z,5.03
2019-03-22T18:31:05.616Z,9.47
2019-03-22T18:33:34.318Z,9.77
2019-03-22T18:36:03.208Z,12.30
2019-03-22T18:38:33.013Z,45.67
2019-03-22T18:41:02.622Z,29.40
2019-03-22T18:43:32.365Z,20.27
2019-03-22T18:46:01.110Z,20.17
2019-03-22T18:48:29.794Z,11.93
2019-03-22T18:50:58.668Z,9.40
2019-03-22T18:53:27.387Z,15.33
2019-03-22T18:55:56.155Z,12.23
2019-03-22T18:58:25.391Z,17.43
2019-03-22T19:00:56.023Z,16.50
2019-03-22T19:03:26.510Z,12.63
2019-03-22T19:05:55.171Z,9.90
2019-03-22T19:08:23.970Z,15.00
2019-03-22T19:10:52.667Z,12.73
2019-03-22T19:13:30.399Z,3.40
2019-03-22T19:15:53.452Z,20.70
2019-03-22T19:18:23.018Z,16.50
2019-03-22T19:20:51.791Z,15.30
2019-03-22T19:23:20.979Z,6.77
2019-03-22T19:25:51.230Z,3.90
2019-03-22T19:28:20.002Z,6.43
2019-03-22T19:30:48.741Z,8.27
2019-03-22T19:33:17.466Z,12.10
2019-03-22T19:35:46.201Z,12.13
2019-03-22T19:38:14.973Z,20.63
2019-03-22T19:40:43.646Z,9.90
2019-03-22T19:43:12.463Z,4.90
2019-03-22T19:45:41.222Z,4.13
2019-03-22T19:48:10.131Z,5.07
2019-03-22T19:50:38.825Z,6.87
2019-03-22T19:53:07.552Z,7.00
2019-03-22T19:55:36.324Z,4.33
2019-03-22T19:58:05.026Z,4.50
2019-03-22T20:00:33.774Z,4.00
2019-03-22T20:03:02.454Z,3.77
2019-03-22T20:05:32.663Z,2.97
2019-03-22T20:08:02.312Z,3.77
2019-03-22T20:10:31.191Z,3.20
2019-03-22T20:12:59.903Z,3.70
2019-03-22T20:15:36.328Z,2.70
2019-03-22T20:18:05.107Z,3.60
2019-03-22T20:20:36.092Z,2.93
2019-03-22T20:23:04.261Z,3.60
2019-03-22T20:25:32.928Z,4.10
2019-03-22T20:28:01.658Z,3.77
2019-03-22T20:30:30.370Z,5.13
2019-03-22T20:32:59.060Z,2.77
2019-03-22T20:35:27.759Z,4.67
2019-03-22T20:37:56.491Z,2.73
2019-03-22T20:40:25.195Z,2.43
2019-03-22T20:42:53.924Z,2.67
2019-03-22T20:45:24.341Z,3.13
2019-03-22T20:47:53.053Z,9.83
2019-03-22T20:50:21.775Z,2.70
2019-03-22T20:52:51.128Z,4.53
2019-03-22T20:55:19.875Z,4.50
2019-03-22T20:57:48.695Z,2.60
2019-03-22T21:00:17.874Z,3.70
2019-03-22T21:02:46.622Z,6.13
2019-03-22T21:05:26.092Z,4.53
2019-03-22T21:07:46.374Z,3.60
2019-03-22T21:10:15.055Z,3.67
2019-03-22T21:12:43.772Z,3.23
2019-03-22T21:15:23.528Z,2.33
2019-03-22T21:17:43.294Z,4.67
2019-03-22T21:20:12.397Z,4.77
2019-03-22T21:22:41.210Z,3.20
2019-03-22T21:25:11.199Z,2.93
2019-03-22T21:27:39.918Z,8.03
2019-03-22T21:30:13.291Z,2.73
2019-03-22T21:32:45.587Z,3.17
2019-03-22T21:35:21.873Z,2.60
2019-03-22T21:37:43.074Z,4.30
2019-03-22T21:40:12.901Z,5.10
2019-03-22T21:42:41.609Z,2.87
2019-03-22T21:45:12.332Z,3.30
2019-03-22T21:47:41.038Z,3.73
2019-03-22T21:50:11.218Z,3.30
2019-03-22T21:52:39.900Z,4.80
2019-03-22T21:55:09.081Z,3.40
2019-03-22T21:57:37.782Z,3.60
2019-03-22T22:00:11.830Z,4.70
2019-03-22T22:02:40.692Z,2.60
2019-03-22T22:05:09.597Z,5.53
2019-03-22T22:07:38.297Z,3.27
2019-03-22T22:10:09.083Z,5.17
2019-03-22T22:12:38.010Z,6.33
2019-03-22T22:15:12.192Z,4.50
2019-03-22T22:17:44.319Z,5.57
2019-03-22T22:20:13.926Z,6.87
2019-03-22T22:22:42.603Z,5.83
2019-03-22T22:25:11.276Z,5.33
2019-03-22T22:27:40.935Z,5.23
2019-03-22T22:30:11.030Z,5.77
2019-03-22T22:32:39.696Z,9.27
2019-03-22T22:35:09.318Z,6.70
2019-03-22T22:37:38.015Z,5.73
2019-03-22T22:40:11.357Z,5.97
2019-03-22T22:42:40.063Z,6.20
2019-03-22T22:45:12.597Z,9.13
2019-03-22T22:47:41.362Z,6.30
2019-03-22T22:50:13.359Z,7.10
2019-03-22T22:52:42.205Z,7.40
2019-03-22T22:55:11.543Z,6.53
2019-03-22T22:57:40.315Z,6.93
2019-03-22T23:00:17.199Z,7.90
2019-03-22T23:02:46.175Z,9.53
2019-03-22T23:05:15.085Z,5.80
2019-03-22T23:07:43.738Z,6.00
2019-03-22T23:10:12.871Z,6.97
2019-03-22T23:12:42.231Z,7.10
2019-03-22T23:15:11.289Z,9.93
2019-03-22T23:17:40.011Z,6.83
2019-03-22T23:20:10.398Z,8.73
2019-03-22T23:22:39.090Z,12.40
2019-03-22T23:25:08.085Z,8.53
2019-03-22T23:27:37.674Z,6.40
2019-03-22T23:30:08.907Z,9.87
2019-03-22T23:32:37.718Z,7.27
2019-03-22T23:35:07.581Z,7.60
2019-03-22T23:37:36.430Z,6.33
2019-03-22T23:40:06.569Z,8.10
2019-03-22T23:42:35.272Z,6.90
2019-03-22T23:45:06.052Z,8.60
2019-03-22T23:47:35.042Z,9.63
2019-03-22T23:50:05.580Z,12.63
2019-03-22T23:52:34.286Z,7.47
2019-03-22T23:55:02.985Z,5.43
2019-03-22T23:57:31.743Z,9.63
